Time;durP1;ratioP1;P1;durP2;ratioP2;P2;SDS_P1;SDS_P2;PMS_P1;PMS_P2;Temp;Humidity;BMP_temperature;BMP_pressure;BME280_temperature;BME280_humidity;BME280_pressure;Samples;Min_cycle;Max_cycle;Signal;HPM_P1;HPM_P2
2022/01/27 00:01:29;;;;;;;29.63;12.82;;;6.70;99.90;;;;;;5031280;28;20046;-66
2022/01/27 00:06:32;;;;;;;20.88;10.32;;;6.80;99.90;;;;;;5050403;28;20103;-66
2022/01/27 00:09:07;;;;;;;24.92;11.68;;;6.80;99.90;;;;;;5050503;28;20076;-66
2022/01/27 00:11:33;;;;;;;33.03;13.93;;;6.90;99.90;;;;;;5050487;28;20395;-66
2022/01/27 00:14:01;;;;;;;23.85;11.50;;;6.90;99.90;;;;;;5052568;28;20029;-66
2022/01/27 00:16:30;;;;;;;30.38;13.20;;;6.90;99.90;;;;;;5050681;28;20045;-66
2022/01/27 00:18:57;;;;;;;24.63;11.43;;;6.90;99.90;;;;;;5048205;28;20041;-66
2022/01/27 00:21:29;;;;;;;29.70;14.18;;;6.90;99.90;;;;;;5050118;28;20465;-66
2022/01/27 00:23:55;;;;;;;25.45;12.50;;;6.80;99.90;;;;;;5049364;28;20052;-66
2022/01/27 00:26:22;;;;;;;29.77;12.50;;;6.80;99.90;;;;;;5049471;28;20485;-66
2022/01/27 00:28:48;;;;;;;29.42;13.57;;;7.20;99.90;;;;;;5050465;28;20528;-66
2022/01/27 00:31:16;;;;;;;24.80;11.95;;;6.80;99.90;;;;;;5051695;28;20049;-66
2022/01/27 00:33:43;;;;;;;24.27;10.50;;;6.80;99.90;;;;;;5066024;28;20048;-66
2022/01/27 00:36:08;;;;;;;25.92;13.57;;;6.90;99.90;;;;;;5030123;28;20041;-66
2022/01/27 00:38:34;;;;;;;27.95;13.75;;;6.90;99.90;;;;;;5029439;28;20168;-66
2022/01/27 00:41:00;;;;;;;34.45;14.02;;;6.80;99.90;;;;;;5030579;28;20438;-66
2022/01/27 00:43:25;;;;;;;28.23;12.93;;;6.80;99.90;;;;;;5030420;28;20052;-66
2022/01/27 00:45:51;;;;;;;32.08;14.10;;;6.80;99.90;;;;;;5030549;28;20041;-66
2022/01/27 00:48:17;;;;;;;30.02;15.18;;;6.80;99.90;;;;;;5030262;28;20578;-66
2022/01/27 00:50:48;;;;;;;22.65;11.48;;;6.80;99.90;;;;;;5046744;28;20056;-66
2022/01/27 00:53:28;;;;;;;27.13;12.93;;;6.70;99.90;;;;;;5049924;28;20123;-65
2022/01/27 00:55:55;;;;;;;30.67;13.70;;;6.80;99.90;;;;;;5049896;28;20056;-66
2022/01/27 00:58:43;;;;;;;26.33;13.77;;;6.70;99.90;;;;;;5049125;28;20120;-66
2022/01/27 01:01:12;;;;;;;27.90;13.20;;;6.70;99.90;;;;;;5049750;28;20098;-66
2022/01/27 01:03:42;;;;;;;29.25;13.88;;;6.80;99.90;;;;;;5046971;28;20126;-66
2022/01/27 01:22:02;;;;;;;29.38;13.88;;;6.60;99.90;;;;;;5048644;28;20195;-65
2022/01/27 01:30:08;;;;;;;32.83;14.85;;;6.60;99.90;;;;;;5049227;28;20053;-67
2022/01/27 01:32:44;;;;;;;32.15;15.13;;;6.50;99.90;;;;;;5028626;28;20033;-67
2022/01/27 01:35:11;;;;;;;27.52;13.80;;;6.50;99.90;;;;;;5028125;28;20195;-67
2022/01/27 01:37:39;;;;;;;27.95;14.65;;;6.60;99.90;;;;;;5028675;28;20049;-68
2022/01/27 01:40:14;;;;;;;30.35;15.38;;;6.60;99.90;;;;;;5030536;28;20410;-67
2022/01/27 01:42:41;;;;;;;28.83;15.13;;;6.50;99.90;;;;;;5030180;28;20113;-67
2022/01/27 01:45:12;;;;;;;27.80;13.98;;;6.40;99.90;;;;;;5032174;28;20159;-68
2022/01/27 01:47:38;;;;;;;34.92;15.20;;;6.40;99.90;;;;;;5048433;28;20381;-68
2022/01/27 01:50:06;;;;;;;36.92;15.02;;;6.40;99.90;;;;;;5047767;28;20047;-67
2022/01/27 01:52:32;;;;;;;26.55;13.45;;;6.40;99.90;;;;;;5049166;28;20059;-68
2022/01/27 01:54:57;;;;;;;35.60;14.63;;;6.40;99.90;;;;;;5048605;28;20056;-67
2022/01/27 01:57:23;;;;;;;30.45;15.52;;;6.50;99.90;;;;;;5047586;28;20049;-68
2022/01/27 01:59:49;;;;;;;31.58;16.95;;;6.40;99.90;;;;;;5047910;28;20069;-67
2022/01/27 02:02:15;;;;;;;34.22;15.68;;;6.40;99.90;;;;;;5049084;28;20116;-68
2022/01/27 02:04:42;;;;;;;33.65;16.67;;;6.40;99.90;;;;;;5046817;28;20188;-67
2022/01/27 02:07:32;;;;;;;29.63;15.23;;;6.50;99.90;;;;;;5028842;28;20052;-67
2022/01/27 02:10:10;;;;;;;27.80;14.82;;;6.50;99.90;;;;;;5026979;28;20614;-67
2022/01/27 02:18:08;;;;;;;31.58;16.50;;;6.40;99.90;;;;;;5045438;28;20049;-67
2022/01/27 02:20:36;;;;;;;30.60;15.65;;;6.40;99.90;;;;;;5047092;28;20076;-65
2022/01/27 02:23:05;;;;;;;30.88;17.17;;;6.40;99.90;;;;;;5048178;28;20036;-66
2022/01/27 02:25:30;;;;;;;30.55;14.27;;;6.40;99.90;;;;;;5048396;28;20048;-65
2022/01/27 02:27:57;;;;;;;29.65;15.73;;;6.50;99.90;;;;;;5045826;28;20148;-65
2022/01/27 02:30:24;;;;;;;31.83;15.60;;;6.50;99.90;;;;;;5049158;28;20136;-65
2022/01/27 02:32:54;;;;;;;33.97;16.23;;;6.50;99.90;;;;;;5046805;28;20387;-65
2022/01/27 02:35:26;;;;;;;32.80;15.75;;;6.50;99.90;;;;;;5048403;28;20045;-65
2022/01/27 02:37:53;;;;;;;39.20;18.77;;;6.50;99.90;;;;;;5046716;28;20143;-65
2022/01/27 02:40:25;;;;;;;33.45;15.77;;;6.50;99.90;;;;;;5047156;28;20037;-65
2022/01/27 02:42:53;;;;;;;27.45;15.73;;;6.50;99.90;;;;;;5039448;28;20053;-65
2022/01/27 02:45:44;;;;;;;30.48;16.55;;;6.60;99.90;;;;;;5027157;28;20045;-65
2022/01/27 02:48:12;;;;;;;33.67;14.02;;;6.60;99.90;;;;;;5033797;28;20453;-66
2022/01/27 02:50:38;;;;;;;31.20;16.00;;;6.60;99.90;;;;;;5047787;28;20048;-65
2022/01/27 02:53:04;;;;;;;35.03;17.58;;;6.50;99.90;;;;;;5045966;28;20501;-66
2022/01/27 02:55:29;;;;;;;29.35;15.32;;;6.50;99.90;;;;;;5047883;28;20033;-65
2022/01/27 02:57:58;;;;;;;34.22;17.55;;;6.60;99.90;;;;;;5046786;28;20059;-66
2022/01/27 03:00:24;;;;;;;36.72;17.70;;;6.60;99.90;;;;;;5041893;28;20049;-66
2022/01/27 03:02:49;;;;;;;28.27;14.68;;;6.50;99.90;;;;;;5047648;28;20436;-65
2022/01/27 03:05:15;;;;;;;40.35;18.27;;;6.50;99.90;;;;;;5047534;28;20045;-65
2022/01/27 03:07:41;;;;;;;32.78;17.98;;;6.60;99.90;;;;;;5047205;28;20037;-65
2022/01/27 03:10:07;;;;;;;32.30;18.00;;;6.60;99.90;;;;;;5048279;28;20048;-65
2022/01/27 03:12:36;;;;;;;32.30;15.95;;;6.60;99.90;;;;;;5049241;28;20048;-65
2022/01/27 03:15:03;;;;;;;38.80;17.95;;;6.60;99.90;;;;;;5047248;28;20056;-65
2022/01/27 03:17:29;;;;;;;37.03;17.83;;;6.60;99.90;;;;;;5046054;28;20079;-65
2022/01/27 03:19:55;;;;;;;34.92;16.88;;;6.60;99.90;;;;;;5042883;28;20087;-65
2022/01/27 03:22:20;;;;;;;33.22;17.70;;;6.60;99.90;;;;;;5046890;28;20066;-66
2022/01/27 03:24:46;;;;;;;38.85;18.38;;;6.60;99.90;;;;;;5047442;28;20045;-66
2022/01/27 03:27:22;;;;;;;33.58;17.70;;;6.60;99.90;;;;;;5048207;28;20045;-65
2022/01/27 03:29:48;;;;;;;35.72;18.40;;;6.60;99.90;;;;;;5046541;28;20048;-65
2022/01/27 03:32:14;;;;;;;32.08;17.67;;;6.60;99.90;;;;;;5046796;28;20450;-65
2022/01/27 03:34:40;;;;;;;28.42;15.15;;;6.60;99.90;;;;;;5045420;28;20044;-66
2022/01/27 03:37:05;;;;;;;40.10;17.15;;;6.60;99.90;;;;;;5047498;28;20045;-66
2022/01/27 03:39:32;;;;;;;35.40;18.08;;;6.60;99.90;;;;;;5047478;28;20056;-65
2022/01/27 03:41:58;;;;;;;34.70;16.40;;;6.60;99.90;;;;;;5047793;28;20489;-65
2022/01/27 03:44:25;;;;;;;36.78;17.45;;;6.60;99.90;;;;;;5046341;28;20045;-65
2022/01/27 03:46:53;;;;;;;34.28;17.90;;;6.70;99.90;;;;;;5049199;28;20045;-65
2022/01/27 03:49:19;;;;;;;30.50;16.75;;;6.70;99.90;;;;;;5046371;28;20041;-65
2022/01/27 03:51:45;;;;;;;35.28;17.55;;;6.60;99.90;;;;;;5047669;28;20053;-66
2022/01/27 03:54:12;;;;;;;30.10;16.02;;;6.60;99.90;;;;;;5050597;28;20081;-66
2022/01/27 03:56:37;;;;;;;41.10;18.52;;;6.70;99.90;;;;;;5047737;28;20051;-66
2022/01/27 03:59:03;;;;;;;36.40;17.98;;;6.60;99.90;;;;;;5049645;28;20135;-66
2022/01/27 04:01:30;;;;;;;31.95;15.02;;;6.70;99.90;;;;;;5050091;28;20037;-65
2022/01/27 04:03:58;;;;;;;33.67;15.90;;;6.70;99.90;;;;;;5052089;28;20124;-65
2022/01/27 04:06:33;;;;;;;36.72;15.38;;;6.70;99.90;;;;;;5051922;28;20102;-65
2022/01/27 04:08:59;;;;;;;34.38;16.85;;;6.70;99.90;;;;;;5034561;28;20117;-65
2022/01/27 04:11:25;;;;;;;36.22;16.60;;;6.70;99.90;;;;;;5030084;28;20409;-65
2022/01/27 04:13:51;;;;;;;32.97;17.40;;;6.70;99.90;;;;;;5034237;28;20042;-65
2022/01/27 04:16:16;;;;;;;34.33;15.30;;;6.70;99.90;;;;;;5031160;28;20083;-65
2022/01/27 04:18:42;;;;;;;36.33;16.75;;;6.70;99.90;;;;;;5047223;28;20056;-65
2022/01/27 04:21:08;;;;;;;34.17;15.07;;;8.10;99.90;;;;;;5051156;28;20040;-65
2022/01/27 04:23:33;;;;;;;34.25;14.40;;;6.70;99.90;;;;;;5049525;28;20080;-65
2022/01/27 04:26:00;;;;;;;28.67;14.07;;;6.70;99.90;;;;;;5048697;28;20045;-65
2022/01/27 04:28:29;;;;;;;34.20;17.17;;;6.80;99.90;;;;;;5051492;28;20041;-65
2022/01/27 04:30:57;;;;;;;40.75;16.70;;;6.80;99.90;;;;;;5053229;28;20048;-65
2022/01/27 04:33:29;;;;;;;29.20;13.60;;;6.70;99.90;;;;;;5050304;28;20084;-65
2022/01/27 04:35:58;;;;;;;34.70;16.42;;;6.80;99.90;;;;;;5050411;28;20041;-65
2022/01/27 04:38:34;;;;;;;37.42;15.50;;;6.70;99.90;;;;;;5048720;28;20087;-66
2022/01/27 04:41:14;;;;;;;37.78;15.50;;;6.80;99.90;;;;;;5049273;28;20059;-66
2022/01/27 04:46:16;;;;;;;30.17;14.07;;;6.70;99.90;;;;;;5049645;28;20044;-66
2022/01/27 04:48:47;;;;;;;28.70;13.20;;;6.70;99.90;;;;;;5049204;28;20049;-65
2022/01/27 04:51:16;;;;;;;34.10;14.82;;;6.70;99.90;;;;;;5051422;28;20049;-66
2022/01/27 04:53:51;;;;;;;40.67;17.30;;;6.70;99.90;;;;;;5050832;28;20456;-65
2022/01/27 04:56:20;;;;;;;37.40;16.20;;;6.80;99.90;;;;;;5049435;28;20519;-66
2022/01/27 04:58:48;;;;;;;35.40;15.18;;;6.80;99.90;;;;;;5028645;28;20981;-66
2022/01/27 05:01:16;;;;;;;36.30;15.57;;;6.80;99.90;;;;;;5050571;28;20342;-66
2022/01/27 05:03:57;;;;;;;39.17;15.32;;;6.80;99.90;;;;;;5048232;28;20049;-66
2022/01/27 05:06:23;;;;;;;34.13;16.25;;;6.70;99.90;;;;;;5049685;28;20045;-66
2022/01/27 05:08:49;;;;;;;39.38;16.05;;;6.60;99.90;;;;;;5049587;28;20037;-66
2022/01/27 05:11:22;;;;;;;39.63;17.08;;;6.70;99.90;;;;;;5066777;28;20048;-66
2022/01/27 05:13:54;;;;;;;41.10;16.48;;;6.70;99.90;;;;;;5050868;28;20057;-66
2022/01/27 05:16:20;;;;;;;41.03;16.20;;;6.70;99.90;;;;;;5029852;28;20453;-66
2022/01/27 05:18:46;;;;;;;35.65;15.60;;;6.60;99.90;;;;;;5028738;28;20057;-66
2022/01/27 05:21:11;;;;;;;41.22;15.73;;;6.60;99.90;;;;;;5029990;28;20117;-66
2022/01/27 05:23:37;;;;;;;36.42;17.00;;;6.60;99.90;;;;;;5030403;28;20507;-66
2022/01/27 05:26:03;;;;;;;44.03;17.08;;;7.80;99.90;;;;;;5030155;28;20108;-66
2022/01/27 05:28:28;;;;;;;37.75;16.05;;;6.70;99.90;;;;;;5028320;28;20092;-66
2022/01/27 05:30:54;;;;;;;42.67;17.92;;;6.70;99.90;;;;;;5051487;28;20044;-66
2022/01/27 05:33:19;;;;;;;41.60;17.95;;;6.70;99.90;;;;;;5052252;28;20051;-66
2022/01/27 05:35:46;;;;;;;32.38;15.85;;;6.60;99.90;;;;;;5048759;28;20045;-66
2022/01/27 05:38:15;;;;;;;33.55;15.85;;;6.60;99.90;;;;;;5048102;28;20440;-66
2022/01/27 05:40:43;;;;;;;37.88;16.98;;;6.60;99.90;;;;;;5048853;28;20037;-66
2022/01/27 05:43:08;;;;;;;39.53;17.30;;;6.60;99.90;;;;;;5048034;28;20447;-66
2022/01/27 05:45:34;;;;;;;41.47;17.95;;;6.60;99.90;;;;;;5034066;28;20050;-66
2022/01/27 05:47:59;;;;;;;38.65;14.65;;;6.60;99.90;;;;;;5029083;28;20088;-66
2022/01/27 05:50:25;;;;;;;43.60;17.95;;;6.60;99.90;;;;;;5027487;28;20050;-66
2022/01/27 05:52:51;;;;;;;33.42;16.15;;;6.60;99.90;;;;;;5044020;28;20045;-66
2022/01/27 05:55:16;;;;;;;37.25;16.70;;;6.60;99.90;;;;;;5029421;28;20507;-66
2022/01/27 05:57:42;;;;;;;38.33;15.65;;;6.60;99.90;;;;;;5026246;28;20081;-66
2022/01/27 06:00:10;;;;;;;39.53;16.83;;;6.60;99.90;;;;;;5039703;28;20044;-66
2022/01/27 06:02:36;;;;;;;41.45;15.85;;;6.60;99.90;;;;;;5050586;28;20362;-66
2022/01/27 06:05:02;;;;;;;39.85;16.35;;;6.60;99.90;;;;;;5047899;28;20111;-65
2022/01/27 06:07:29;;;;;;;37.38;15.07;;;6.60;99.90;;;;;;5043874;28;20358;-65
2022/01/27 06:09:55;;;;;;;37.00;17.05;;;6.60;99.90;;;;;;5027680;28;20052;-65
2022/01/27 06:12:21;;;;;;;38.30;16.38;;;6.50;99.90;;;;;;5032240;28;20079;-65
2022/01/27 06:14:47;;;;;;;39.25;16.83;;;6.60;99.90;;;;;;5046160;28;20111;-66
2022/01/27 06:17:12;;;;;;;31.05;13.88;;;6.60;99.90;;;;;;5050298;28;20040;-65
2022/01/27 06:19:38;;;;;;;35.03;14.98;;;6.60;99.90;;;;;;5046873;28;20044;-65
2022/01/27 06:22:11;;;;;;;40.13;16.48;;;6.60;99.90;;;;;;5047100;28;20040;-66
2022/01/27 06:24:38;;;;;;;33.92;14.15;;;6.60;99.90;;;;;;5046054;28;20049;-68
2022/01/27 06:27:04;;;;;;;34.90;14.93;;;6.60;99.90;;;;;;5047563;28;20037;-65
2022/01/27 06:29:30;;;;;;;34.03;13.73;;;7.70;99.90;;;;;;5047631;28;20044;-65
2022/01/27 06:31:55;;;;;;;33.38;14.73;;;6.70;99.90;;;;;;5047833;28;20044;-66
2022/01/27 06:34:21;;;;;;;31.65;13.15;;;6.80;99.90;;;;;;5047111;28;20032;-66
2022/01/27 06:36:46;;;;;;;34.90;15.38;;;6.70;99.90;;;;;;5064610;28;20049;-67
2022/01/27 06:39:12;;;;;;;33.05;14.20;;;6.70;99.90;;;;;;5047241;28;20395;-66
2022/01/27 06:41:38;;;;;;;31.70;13.75;;;6.80;99.90;;;;;;5063049;28;20040;-66
2022/01/27 06:44:05;;;;;;;39.58;14.48;;;6.80;99.90;;;;;;5046858;28;20129;-67
2022/01/27 06:46:32;;;;;;;28.70;13.57;;;6.80;99.90;;;;;;5045436;28;20136;-67
2022/01/27 06:48:58;;;;;;;27.55;13.80;;;6.80;99.90;;;;;;5045378;28;20126;-67
2022/01/27 06:51:26;;;;;;;32.25;12.77;;;6.90;99.90;;;;;;5034352;28;20069;-67
2022/01/27 06:53:52;;;;;;;32.10;14.02;;;6.90;99.90;;;;;;5042363;28;20045;-67
2022/01/27 06:56:17;;;;;;;31.52;12.52;;;6.90;99.90;;;;;;5047376;28;20041;-67
2022/01/27 06:58:43;;;;;;;34.28;13.52;;;6.90;99.90;;;;;;5046638;28;20378;-67
2022/01/27 07:01:08;;;;;;;33.15;14.48;;;7.00;99.90;;;;;;5047396;28;20053;-67
2022/01/27 07:03:34;;;;;;;30.38;12.98;;;6.90;99.90;;;;;;5046420;28;20127;-67
2022/01/27 07:06:00;;;;;;;26.48;11.75;;;7.00;99.90;;;;;;5045729;28;20393;-68
2022/01/27 07:08:25;;;;;;;29.10;11.63;;;7.00;99.90;;;;;;5049348;28;20040;-67
2022/01/27 07:10:51;;;;;;;30.38;12.23;;;7.10;99.90;;;;;;5048240;28;20120;-67
2022/01/27 07:13:16;;;;;;;20.50;8.98;;;7.10;99.90;;;;;;5046566;28;20458;-67
2022/01/27 07:15:42;;;;;;;23.50;11.27;;;7.10;99.90;;;;;;5047220;28;20128;-67
2022/01/27 07:18:08;;;;;;;23.70;10.35;;;7.20;99.90;;;;;;5045590;28;20045;-66
2022/01/27 07:20:33;;;;;;;23.95;11.15;;;7.20;99.90;;;;;;5045760;28;20099;-67
2022/01/27 07:22:59;;;;;;;29.85;11.45;;;7.20;99.90;;;;;;5046849;28;20080;-66
2022/01/27 07:25:24;;;;;;;28.02;13.32;;;7.20;99.90;;;;;;5047877;28;20049;-66
2022/01/27 07:27:51;;;;;;;26.83;11.68;;;7.20;99.90;;;;;;5046957;28;20041;-67
2022/01/27 07:30:17;;;;;;;22.60;10.13;;;7.20;99.90;;;;;;5046662;28;20064;-66
2022/01/27 07:32:42;;;;;;;27.40;10.65;;;7.20;99.90;;;;;;5051736;28;20445;-67
2022/01/27 07:35:08;;;;;;;22.80;10.57;;;7.30;99.90;;;;;;5049140;28;20045;-67
2022/01/27 07:37:34;;;;;;;26.90;9.80;;;7.30;99.90;;;;;;5052319;28;20441;-66
2022/01/27 07:39:59;;;;;;;17.65;7.88;;;7.30;99.90;;;;;;5052785;28;20047;-66
2022/01/27 07:42:25;;;;;;;32.80;11.70;;;7.30;99.90;;;;;;5050398;28;20048;-66
2022/01/27 07:44:50;;;;;;;27.58;11.48;;;7.90;99.90;;;;;;5047807;28;20135;-67
2022/01/27 07:47:16;;;;;;;23.92;10.27;;;7.50;99.90;;;;;;5052796;28;20142;-66
2022/01/27 07:49:42;;;;;;;30.65;12.70;;;7.40;99.90;;;;;;5049164;28;20045;-66
2022/01/27 07:52:07;;;;;;;29.17;11.05;;;7.50;99.90;;;;;;5049761;28;20485;-66
2022/01/27 07:54:33;;;;;;;30.88;11.73;;;7.50;99.90;;;;;;5048875;28;20393;-67
2022/01/27 07:56:58;;;;;;;37.35;12.65;;;7.60;99.90;;;;;;5044904;28;20057;-67
2022/01/27 07:59:24;;;;;;;24.88;10.85;;;7.60;99.90;;;;;;5027586;28;20057;-67
2022/01/27 08:01:50;;;;;;;36.22;12.75;;;7.60;99.90;;;;;;5052559;28;20151;-67
2022/01/27 08:04:15;;;;;;;30.30;11.00;;;7.60;99.90;;;;;;5048367;28;20068;-67
2022/01/27 08:06:41;;;;;;;29.30;11.90;;;7.70;99.90;;;;;;5050490;28;20041;-67
2022/01/27 08:09:07;;;;;;;24.83;9.57;;;7.70;99.90;;;;;;5050471;28;20493;-67
2022/01/27 08:11:33;;;;;;;29.02;9.18;;;7.70;99.90;;;;;;5049907;28;20047;-68
2022/01/27 08:13:59;;;;;;;28.30;9.27;;;7.80;99.90;;;;;;5049341;28;20378;-67
2022/01/27 08:16:24;;;;;;;30.40;8.65;;;7.80;99.90;;;;;;5049178;28;20115;-67
2022/01/27 08:18:50;;;;;;;27.65;10.00;;;8.70;99.90;;;;;;5049911;28;20462;-66
2022/01/27 08:21:16;;;;;;;25.33;9.32;;;7.90;99.90;;;;;;5045942;28;20037;-66
2022/01/27 08:23:43;;;;;;;25.27;9.70;;;8.00;99.90;;;;;;5030308;28;20045;-67
2022/01/27 08:26:13;;;;;;;25.48;8.30;;;8.00;99.90;;;;;;5048776;28;20110;-67
2022/01/27 08:28:53;;;;;;;21.83;8.38;;;8.00;99.90;;;;;;5038126;28;20044;-67
2022/01/27 08:31:19;;;;;;;19.73;7.57;;;8.20;99.90;;;;;;5029803;28;20459;-67
2022/01/27 08:33:44;;;;;;;28.13;8.73;;;8.10;99.90;;;;;;5028217;28;20124;-67
2022/01/27 08:36:10;;;;;;;23.58;8.38;;;8.10;99.90;;;;;;5040832;28;20047;-68
2022/01/27 08:38:41;;;;;;;29.52;9.40;;;8.10;99.90;;;;;;5046402;28;20124;-68
2022/01/27 08:41:08;;;;;;;25.15;8.68;;;8.20;99.90;;;;;;5047802;28;20041;-68
2022/01/27 08:43:34;;;;;;;24.80;9.05;;;8.20;99.90;;;;;;5048634;28;20373;-67
2022/01/27 08:46:01;;;;;;;27.38;8.32;;;8.10;99.90;;;;;;5051436;28;20041;-67
2022/01/27 08:48:28;;;;;;;21.15;8.02;;;8.20;99.90;;;;;;5047130;28;20203;-67
2022/01/27 08:51:01;;;;;;;20.63;7.80;;;8.20;99.90;;;;;;5050257;28;20471;-66
2022/01/27 08:53:30;;;;;;;23.83;7.40;;;8.30;99.90;;;;;;5046491;28;20102;-68
2022/01/27 08:55:56;;;;;;;20.80;5.95;;;8.20;99.90;;;;;;5046630;28;20053;-67
2022/01/27 08:58:25;;;;;;;26.38;7.18;;;7.80;99.90;;;;;;5044899;28;20480;-67
2022/01/27 09:00:51;;;;;;;20.85;7.15;;;8.20;99.90;;;;;;5042127;28;20075;-66
2022/01/27 09:03:18;;;;;;;15.93;5.15;;;8.30;99.90;;;;;;5045430;28;20402;-67
2022/01/27 09:05:44;;;;;;;25.45;7.78;;;8.30;99.90;;;;;;5044264;28;20045;-67
2022/01/27 09:08:09;;;;;;;25.55;7.70;;;8.30;99.90;;;;;;5041608;28;20045;-68
2022/01/27 09:10:35;;;;;;;17.52;5.88;;;8.40;99.90;;;;;;5041728;28;20103;-68
2022/01/27 09:13:01;;;;;;;17.50;6.70;;;8.30;99.90;;;;;;5035197;28;20563;-67
2022/01/27 09:15:28;;;;;;;21.92;6.90;;;8.40;99.90;;;;;;5038119;28;20049;-67
2022/01/27 09:17:56;;;;;;;19.08;6.28;;;8.40;99.90;;;;;;5048026;28;20102;-67
2022/01/27 09:20:22;;;;;;;19.70;5.70;;;8.40;99.90;;;;;;5048721;28;20049;-68
2022/01/27 09:22:52;;;;;;;20.85;5.57;;;8.40;99.90;;;;;;5045671;28;20105;-67
2022/01/27 09:25:25;;;;;;;28.58;7.53;;;8.50;99.90;;;;;;5046124;28;20048;-67
2022/01/27 09:27:52;;;;;;;18.23;5.75;;;8.40;99.90;;;;;;5045791;28;20080;-67
2022/01/27 09:30:19;;;;;;;22.92;4.70;;;8.40;99.90;;;;;;5041004;28;20045;-67
2022/01/27 09:32:45;;;;;;;15.65;4.60;;;8.50;99.90;;;;;;5046844;28;20461;-67
2022/01/27 09:35:12;;;;;;;16.42;5.90;;;8.60;99.90;;;;;;5049918;28;20053;-67
2022/01/27 09:37:38;;;;;;;22.27;5.65;;;8.60;99.90;;;;;;5048397;28;20116;-68
2022/01/27 09:40:07;;;;;;;23.77;6.45;;;8.70;99.90;;;;;;5047177;28;20045;-67
2022/01/27 09:42:35;;;;;;;20.58;5.93;;;8.50;99.90;;;;;;5046014;28;20099;-67
2022/01/27 09:45:03;;;;;;;24.05;6.22;;;8.70;99.90;;;;;;5047238;28;20060;-68
2022/01/27 09:47:31;;;;;;;17.15;4.65;;;8.80;99.90;;;;;;5046341;28;20172;-68
2022/01/27 09:52:39;;;;;;;16.65;4.80;;;8.80;99.90;;;;;;5053439;28;20044;-67
2022/01/27 09:55:05;;;;;;;23.58;5.30;;;8.90;99.90;;;;;;5047914;28;20041;-67
2022/01/27 09:57:31;;;;;;;15.50;4.88;;;8.90;99.90;;;;;;5044824;28;20211;-68
2022/01/27 09:59:57;;;;;;;15.95;4.22;;;8.90;99.90;;;;;;5044365;28;20485;-67
2022/01/27 10:02:26;;;;;;;17.08;4.97;;;9.00;99.90;;;;;;5050053;28;20028;-67
2022/01/27 10:04:57;;;;;;;24.42;4.95;;;9.40;99.90;;;;;;5046426;28;20041;-68
2022/01/27 10:07:28;;;;;;;26.65;5.63;;;9.10;99.90;;;;;;5045326;28;20529;-67
2022/01/27 10:10:20;;;;;;;15.88;4.95;;;9.10;99.90;;;;;;5040998;28;20124;-68
2022/01/27 10:12:51;;;;;;;15.68;4.38;;;9.10;99.90;;;;;;5026560;28;20072;-67
2022/01/27 10:15:22;;;;;;;21.00;4.53;;;9.10;99.90;;;;;;5044555;28;20121;-69
2022/01/27 10:18:04;;;;;;;31.95;4.88;;;9.20;99.90;;;;;;5046023;28;20049;-67
2022/01/27 10:20:30;;;;;;;24.08;5.60;;;9.20;99.90;;;;;;5027378;28;20046;-68
2022/01/27 10:23:19;;;;;;;23.50;4.90;;;9.20;99.90;;;;;;5028195;28;20064;-67
2022/01/27 10:25:52;;;;;;;23.23;4.65;;;9.20;99.90;;;;;;5044885;28;20102;-67
2022/01/27 10:28:32;;;;;;;20.98;4.82;;;10.70;99.90;;;;;;5045648;28;20068;-67
2022/01/27 10:31:03;;;;;;;17.10;4.40;;;9.30;99.90;;;;;;5041596;28;20040;-67
2022/01/27 10:33:44;;;;;;;21.30;5.25;;;9.30;99.90;;;;;;5057294;28;20082;-67
2022/01/27 10:36:27;;;;;;;19.38;4.47;;;9.30;99.90;;;;;;5067545;28;20036;-67
2022/01/27 10:38:58;;;;;;;26.38;5.00;;;9.30;99.90;;;;;;5065941;28;20049;-68
2022/01/27 10:41:29;;;;;;;19.38;4.40;;;9.40;99.90;;;;;;5048473;28;20043;-68
2022/01/27 10:44:11;;;;;;;16.63;4.80;;;9.40;99.90;;;;;;5062865;28;20060;-67
2022/01/27 10:46:49;;;;;;;22.67;4.72;;;9.50;99.90;;;;;;5046669;28;20390;-67
2022/01/27 10:49:27;;;;;;;19.45;4.47;;;9.50;99.90;;;;;;5042823;28;20110;-67
2022/01/27 10:51:54;;;;;;;19.58;4.40;;;9.50;99.90;;;;;;5047172;28;20390;-67
2022/01/27 10:57:22;;;;;;;22.33;5.10;;;9.60;99.90;;;;;;5046092;28;20079;-67
2022/01/27 10:59:48;;;;;;;25.33;4.80;;;9.70;99.90;;;;;;5046189;28;20129;-68
2022/01/27 11:02:13;;;;;;;21.02;4.78;;;9.90;99.90;;;;;;5047121;28;20465;-68
2022/01/27 11:04:43;;;;;;;14.73;4.40;;;9.60;99.90;;;;;;5049839;28;20040;-68
2022/01/27 11:07:12;;;;;;;15.93;4.43;;;9.60;99.90;;;;;;5050937;28;20103;-68
2022/01/27 11:09:44;;;;;;;22.77;4.47;;;9.70;99.90;;;;;;5031492;28;20044;-67
2022/01/27 11:12:15;;;;;;;14.75;4.40;;;9.70;99.90;;;;;;5032803;28;20050;-67
2022/01/27 11:14:42;;;;;;;17.95;3.88;;;9.80;99.90;;;;;;5033701;28;20060;-68
2022/01/27 11:17:11;;;;;;;19.45;4.50;;;9.80;99.90;;;;;;5032722;28;20394;-67
2022/01/27 11:20:00;;;;;;;19.88;4.88;;;9.70;99.90;;;;;;5029702;28;20072;-68
2022/01/27 11:22:43;;;;;;;19.58;4.65;;;9.70;99.90;;;;;;5031035;28;20046;-68
2022/01/27 11:27:47;;;;;;;22.63;4.55;;;9.80;99.90;;;;;;5030271;28;20053;-67
2022/01/27 11:30:30;;;;;;;26.65;5.28;;;9.80;99.90;;;;;;5030222;28;20052;-67
2022/01/27 11:33:03;;;;;;;18.58;4.15;;;9.80;99.90;;;;;;5029715;28;20410;-67
2022/01/27 11:35:28;;;;;;;25.88;5.03;;;9.80;99.90;;;;;;5030847;28;20050;-68
2022/01/27 11:37:57;;;;;;;23.73;4.50;;;9.90;99.90;;;;;;5032859;28;20064;-67
2022/01/27 11:40:44;;;;;;;28.20;4.45;;;9.90;99.90;;;;;;5029463;28;20402;-68
2022/01/27 11:43:13;;;;;;;21.60;4.78;;;9.90;99.90;;;;;;5030633;28;20374;-67
2022/01/27 11:45:42;;;;;;;24.70;4.35;;;9.90;99.90;;;;;;5028690;28;20081;-68
2022/01/27 11:48:13;;;;;;;20.67;4.35;;;10.00;99.90;;;;;;5030728;28;20446;-68
2022/01/27 11:50:56;;;;;;;23.13;3.97;;;10.00;99.90;;;;;;5031062;28;20042;-68
2022/01/27 11:53:36;;;;;;;23.08;4.15;;;10.00;99.90;;;;;;5030231;28;20498;-68
2022/01/27 11:56:26;;;;;;;20.92;3.63;;;10.00;99.90;;;;;;5030677;28;20129;-67
2022/01/27 11:58:54;;;;;;;14.80;4.05;;;10.00;99.90;;;;;;5028347;28;20133;-68
2022/01/27 12:01:35;;;;;;;23.45;4.68;;;9.90;99.90;;;;;;5029446;28;20393;-67
2022/01/27 12:04:09;;;;;;;19.85;4.72;;;9.90;99.90;;;;;;5028971;28;20081;-68
2022/01/27 12:06:36;;;;;;;15.43;3.78;;;9.90;99.90;;;;;;5044644;28;20077;-68
2022/01/27 12:09:20;;;;;;;17.40;4.03;;;9.90;99.90;;;;;;5029370;28;20084;-67
2022/01/27 12:12:12;;;;;;;27.38;4.43;;;10.00;99.90;;;;;;5028134;28;20092;-67
2022/01/27 12:14:41;;;;;;;20.48;3.80;;;9.90;99.90;;;;;;5026745;28;20443;-67
2022/01/27 12:17:09;;;;;;;22.08;4.57;;;9.90;99.90;;;;;;5029263;28;20085;-67
2022/01/27 12:19:48;;;;;;;20.40;3.88;;;10.00;99.90;;;;;;5026076;28;20053;-67
2022/01/27 12:22:15;;;;;;;24.73;3.85;;;9.90;99.90;;;;;;5027813;28;20046;-68
2022/01/27 12:25:00;;;;;;;24.83;4.00;;;10.90;99.90;;;;;;5026757;28;20045;-67
2022/01/27 12:27:28;;;;;;;19.98;4.03;;;9.90;99.90;;;;;;5028551;28;20049;-68
2022/01/27 12:29:56;;;;;;;21.73;4.90;;;10.60;99.90;;;;;;5029628;28;20482;-67
2022/01/27 12:32:24;;;;;;;20.92;4.63;;;9.90;99.90;;;;;;5031803;28;20046;-69
2022/01/27 12:34:50;;;;;;;19.58;4.03;;;9.90;99.90;;;;;;5029109;28;20049;-68
2022/01/27 12:37:20;;;;;;;23.38;4.25;;;9.90;99.90;;;;;;5031404;28;20516;-67
2022/01/27 12:39:48;;;;;;;22.05;4.20;;;9.90;99.90;;;;;;5028148;28;20041;-69
2022/01/27 12:42:16;;;;;;;18.80;4.05;;;10.40;99.90;;;;;;5028629;28;20045;-68
2022/01/27 12:44:58;;;;;;;23.23;3.53;;;10.00;99.90;;;;;;5028050;28;20057;-68
2022/01/27 12:47:25;;;;;;;23.42;4.50;;;10.00;99.90;;;;;;5029906;28;20104;-68
2022/01/27 12:50:03;;;;;;;13.98;3.08;;;10.00;99.90;;;;;;5030045;28;20081;-68
2022/01/27 12:52:32;;;;;;;21.55;4.13;;;10.10;99.90;;;;;;5010475;28;20128;-68
2022/01/27 12:54:58;;;;;;;19.17;3.80;;;10.10;99.90;;;;;;5029345;28;20441;-68
2022/01/27 12:57:27;;;;;;;19.27;3.95;;;10.30;99.90;;;;;;4992529;28;1047832;-68
2022/01/27 12:59:54;;;;;;;20.27;3.72;;;11.10;99.90;;;;;;5030003;28;20053;-68
2022/01/27 13:02:22;;;;;;;22.25;4.03;;;10.40;99.90;;;;;;5028760;28;20060;-68
2022/01/27 13:04:49;;;;;;;20.65;3.47;;;10.40;99.90;;;;;;5027964;28;20575;-68
2022/01/27 13:07:15;;;;;;;19.65;3.65;;;10.30;99.90;;;;;;5028051;28;20477;-68
2022/01/27 13:09:40;;;;;;;20.50;3.63;;;10.40;99.90;;;;;;5029273;28;20470;-68
2022/01/27 13:12:16;;;;;;;19.20;3.65;;;10.30;99.90;;;;;;5029027;28;20046;-68
2022/01/27 13:15:01;;;;;;;22.33;4.35;;;10.20;99.90;;;;;;5028783;28;20038;-69
2022/01/27 13:17:34;;;;;;;17.90;3.40;;;10.20;99.90;;;;;;5027205;28;20053;-67
2022/01/27 13:20:28;;;;;;;16.15;3.80;;;10.20;99.90;;;;;;5028083;28;20493;-68
2022/01/27 13:23:05;;;;;;;25.33;3.38;;;10.20;99.90;;;;;;5029629;28;20073;-68
2022/01/27 13:25:43;;;;;;;20.25;4.00;;;10.30;99.90;;;;;;5027170;28;20061;-68
2022/01/27 13:28:20;;;;;;;24.77;4.97;;;10.30;99.90;;;;;;5029054;28;20112;-68
2022/01/27 13:30:47;;;;;;;21.85;4.80;;;10.50;99.90;;;;;;5030487;28;20049;-68